sensor_id;sensor_type;location;lat;lon;timestamp;P1;durP1;ratioP1;P2;durP2;ratioP2
55913;SDS011;58179;48.776;9.124;2022-08-18T00:00:07;7.65;;;5.80;;
55913;SDS011;58179;48.776;9.124;2022-08-18T00:02:38;8.60;;;5.88;;
55913;SDS011;58179;48.776;9.124;2022-08-18T00:05:07;8.93;;;6.20;;
55913;SDS011;58179;48.776;9.124;2022-08-18T00:07:33;7.43;;;5.47;;
55913;SDS011;58179;48.776;9.124;2022-08-18T00:10:00;7.35;;;5.47;;
55913;SDS011;58179;48.776;9.124;2022-08-18T00:12:29;7.47;;;5.70;;
55913;SDS011;58179;48.776;9.124;2022-08-18T00:15:01;8.63;;;5.73;;
55913;SDS011;58179;48.776;9.124;2022-08-18T00:17:31;6.95;;;5.50;;
55913;SDS011;58179;48.776;9.124;2022-08-18T00:19:58;8.95;;;5.93;;
55913;SDS011;58179;48.776;9.124;2022-08-18T00:22:25;7.82;;;5.50;;
55913;SDS011;58179;48.776;9.124;2022-08-18T00:24:51;7.63;;;5.70;;
55913;SDS011;58179;48.776;9.124;2022-08-18T00:27:22;7.95;;;6.13;;
55913;SDS011;58179;48.776;9.124;2022-08-18T00:29:50;6.93;;;5.57;;
55913;SDS011;58179;48.776;9.124;2022-08-18T00:32:19;7.22;;;5.40;;
55913;SDS011;58179;48.776;9.124;2022-08-18T00:34:48;7.53;;;5.95;;
55913;SDS011;58179;48.776;9.124;2022-08-18T00:37:14;7.68;;;5.47;;
55913;SDS011;58179;48.776;9.124;2022-08-18T00:39:41;7.93;;;5.97;;
55913;SDS011;58179;48.776;9.124;2022-08-18T00:42:14;7.35;;;5.85;;
55913;SDS011;58179;48.776;9.124;2022-08-18T00:44:44;8.45;;;5.53;;
55913;SDS011;58179;48.776;9.124;2022-08-18T00:47:10;8.40;;;5.60;;
55913;SDS011;58179;48.776;9.124;2022-08-18T00:49:37;7.90;;;5.53;;
55913;SDS011;58179;48.776;9.124;2022-08-18T00:52:07;6.88;;;5.60;;
55913;SDS011;58179;48.776;9.124;2022-08-18T00:54:35;7.80;;;5.70;;
55913;SDS011;58179;48.776;9.124;2022-08-18T00:57:05;6.82;;;5.57;;
55913;SDS011;58179;48.776;9.124;2022-08-18T00:59:35;8.38;;;5.35;;
55913;SDS011;58179;48.776;9.124;2022-08-18T01:02:08;8.55;;;5.32;;
55913;SDS011;58179;48.776;9.124;2022-08-18T01:04:40;6.50;;;5.45;;
55913;SDS011;58179;48.776;9.124;2022-08-18T01:07:17;7.23;;;6.03;;
55913;SDS011;58179;48.776;9.124;2022-08-18T01:09:49;7.53;;;5.40;;
55913;SDS011;58179;48.776;9.124;2022-08-18T01:12:16;5.82;;;5.10;;
55913;SDS011;58179;48.776;9.124;2022-08-18T01:14:43;6.53;;;5.63;;
55913;SDS011;58179;48.776;9.124;2022-08-18T01:17:10;8.30;;;5.68;;
55913;SDS011;58179;48.776;9.124;2022-08-18T01:19:55;7.03;;;5.57;;
55913;SDS011;58179;48.776;9.124;2022-08-18T01:25:23;7.77;;;6.27;;
55913;SDS011;58179;48.776;9.124;2022-08-18T01:28:01;7.22;;;5.15;;
55913;SDS011;58179;48.776;9.124;2022-08-18T01:30:28;7.20;;;5.20;;
55913;SDS011;58179;48.776;9.124;2022-08-18T01:32:56;6.18;;;5.20;;
55913;SDS011;58179;48.776;9.124;2022-08-18T01:35:23;6.97;;;5.18;;
55913;SDS011;58179;48.776;9.124;2022-08-18T01:37:52;8.52;;;5.72;;
55913;SDS011;58179;48.776;9.124;2022-08-18T01:40:20;6.95;;;5.40;;
55913;SDS011;58179;48.776;9.124;2022-08-18T01:42:48;6.30;;;5.40;;
55913;SDS011;58179;48.776;9.124;2022-08-18T01:45:15;8.85;;;5.28;;
55913;SDS011;58179;48.776;9.124;2022-08-18T01:47:44;6.15;;;5.03;;
55913;SDS011;58179;48.776;9.124;2022-08-18T01:50:10;6.60;;;5.73;;
55913;SDS011;58179;48.776;9.124;2022-08-18T01:52:37;6.88;;;5.22;;
55913;SDS011;58179;48.776;9.124;2022-08-18T01:55:05;7.38;;;5.28;;
55913;SDS011;58179;48.776;9.124;2022-08-18T01:57:32;6.53;;;5.30;;
55913;SDS011;58179;48.776;9.124;2022-08-18T02:00:03;6.75;;;5.35;;
55913;SDS011;58179;48.776;9.124;2022-08-18T02:02:30;6.10;;;5.22;;
55913;SDS011;58179;48.776;9.124;2022-08-18T02:05:00;5.78;;;5.18;;
55913;SDS011;58179;48.776;9.124;2022-08-18T02:07:34;5.63;;;5.03;;
55913;SDS011;58179;48.776;9.124;2022-08-18T02:10:00;6.93;;;5.32;;
55913;SDS011;58179;48.776;9.124;2022-08-18T02:12:29;7.68;;;5.78;;
55913;SDS011;58179;48.776;9.124;2022-08-18T02:14:54;9.25;;;5.55;;
55913;SDS011;58179;48.776;9.124;2022-08-18T02:17:21;5.77;;;4.73;;
55913;SDS011;58179;48.776;9.124;2022-08-18T02:19:47;6.03;;;5.40;;
55913;SDS011;58179;48.776;9.124;2022-08-18T02:22:15;5.90;;;5.18;;
55913;SDS011;58179;48.776;9.124;2022-08-18T02:24:43;7.25;;;5.68;;
55913;SDS011;58179;48.776;9.124;2022-08-18T02:27:10;6.05;;;5.40;;
55913;SDS011;58179;48.776;9.124;2022-08-18T02:29:39;5.93;;;5.30;;
55913;SDS011;58179;48.776;9.124;2022-08-18T02:32:06;7.75;;;5.63;;
55913;SDS011;58179;48.776;9.124;2022-08-18T02:34:32;8.38;;;5.75;;
55913;SDS011;58179;48.776;9.124;2022-08-18T02:36:59;6.13;;;5.47;;
55913;SDS011;58179;48.776;9.124;2022-08-18T02:39:25;7.00;;;5.40;;
55913;SDS011;58179;48.776;9.124;2022-08-18T02:41:51;6.03;;;5.40;;
55913;SDS011;58179;48.776;9.124;2022-08-18T02:44:17;6.28;;;5.57;;
55913;SDS011;58179;48.776;9.124;2022-08-18T02:46:45;7.93;;;5.80;;
55913;SDS011;58179;48.776;9.124;2022-08-18T02:49:16;6.68;;;5.70;;
55913;SDS011;58179;48.776;9.124;2022-08-18T02:51:43;7.90;;;5.93;;
55913;SDS011;58179;48.776;9.124;2022-08-18T02:54:10;6.97;;;5.70;;
55913;SDS011;58179;48.776;9.124;2022-08-18T02:56:36;9.32;;;6.30;;
55913;SDS011;58179;48.776;9.124;2022-08-18T02:59:04;7.38;;;5.90;;
55913;SDS011;58179;48.776;9.124;2022-08-18T03:01:33;7.70;;;5.82;;
55913;SDS011;58179;48.776;9.124;2022-08-18T03:04:05;10.10;;;5.83;;
55913;SDS011;58179;48.776;9.124;2022-08-18T03:06:33;8.88;;;6.15;;
55913;SDS011;58179;48.776;9.124;2022-08-18T03:09:01;7.05;;;5.82;;
55913;SDS011;58179;48.776;9.124;2022-08-18T03:11:28;6.55;;;5.68;;
55913;SDS011;58179;48.776;9.124;2022-08-18T03:13:54;6.60;;;5.57;;
55913;SDS011;58179;48.776;9.124;2022-08-18T03:16:21;10.25;;;5.93;;
55913;SDS011;58179;48.776;9.124;2022-08-18T03:18:51;7.10;;;5.67;;
55913;SDS011;58179;48.776;9.124;2022-08-18T03:21:20;6.57;;;5.85;;
55913;SDS011;58179;48.776;9.124;2022-08-18T03:23:48;9.07;;;5.88;;
55913;SDS011;58179;48.776;9.124;2022-08-18T03:26:17;7.30;;;5.60;;
55913;SDS011;58179;48.776;9.124;2022-08-18T03:28:46;7.60;;;6.07;;
55913;SDS011;58179;48.776;9.124;2022-08-18T03:31:16;8.05;;;5.85;;
55913;SDS011;58179;48.776;9.124;2022-08-18T03:33:44;6.65;;;5.50;;
55913;SDS011;58179;48.776;9.124;2022-08-18T03:36:12;7.22;;;5.70;;
55913;SDS011;58179;48.776;9.124;2022-08-18T03:38:43;6.75;;;5.63;;
55913;SDS011;58179;48.776;9.124;2022-08-18T03:41:11;7.68;;;5.70;;
55913;SDS011;58179;48.776;9.124;2022-08-18T03:43:41;10.02;;;6.40;;
55913;SDS011;58179;48.776;9.124;2022-08-18T03:46:09;7.50;;;6.03;;
55913;SDS011;58179;48.776;9.124;2022-08-18T03:48:37;8.32;;;5.45;;
55913;SDS011;58179;48.776;9.124;2022-08-18T03:51:09;7.28;;;6.07;;
55913;SDS011;58179;48.776;9.124;2022-08-18T03:53:39;6.43;;;5.53;;
55913;SDS011;58179;48.776;9.124;2022-08-18T03:56:07;7.13;;;5.60;;
55913;SDS011;58179;48.776;9.124;2022-08-18T03:58:39;8.40;;;5.90;;
55913;SDS011;58179;48.776;9.124;2022-08-18T04:01:05;6.72;;;5.97;;
55913;SDS011;58179;48.776;9.124;2022-08-18T04:03:31;7.28;;;5.53;;
55913;SDS011;58179;48.776;9.124;2022-08-18T04:05:57;7.95;;;5.45;;
55913;SDS011;58179;48.776;9.124;2022-08-18T04:08:23;7.13;;;5.57;;
55913;SDS011;58179;48.776;9.124;2022-08-18T04:10:49;9.02;;;5.78;;
55913;SDS011;58179;48.776;9.124;2022-08-18T04:13:17;7.90;;;5.50;;
55913;SDS011;58179;48.776;9.124;2022-08-18T04:15:43;6.65;;;5.82;;
55913;SDS011;58179;48.776;9.124;2022-08-18T04:18:09;5.97;;;5.10;;
55913;SDS011;58179;48.776;9.124;2022-08-18T04:20:35;6.82;;;5.45;;
55913;SDS011;58179;48.776;9.124;2022-08-18T04:23:02;7.28;;;5.60;;
55913;SDS011;58179;48.776;9.124;2022-08-18T04:25:28;7.60;;;5.35;;
55913;SDS011;58179;48.776;9.124;2022-08-18T04:27:57;7.83;;;5.47;;
55913;SDS011;58179;48.776;9.124;2022-08-18T04:30:26;7.85;;;5.78;;
55913;SDS011;58179;48.776;9.124;2022-08-18T04:32:53;7.35;;;6.00;;
55913;SDS011;58179;48.776;9.124;2022-08-18T04:35:19;6.22;;;5.45;;
55913;SDS011;58179;48.776;9.124;2022-08-18T04:37:46;8.00;;;6.10;;
55913;SDS011;58179;48.776;9.124;2022-08-18T04:40:12;8.17;;;5.40;;
55913;SDS011;58179;48.776;9.124;2022-08-18T04:42:38;8.10;;;5.85;;
55913;SDS011;58179;48.776;9.124;2022-08-18T04:45:05;6.47;;;5.63;;
55913;SDS011;58179;48.776;9.124;2022-08-18T04:47:33;6.63;;;5.93;;
55913;SDS011;58179;48.776;9.124;2022-08-18T04:50:00;8.38;;;6.05;;
55913;SDS011;58179;48.776;9.124;2022-08-18T04:52:26;6.80;;;5.30;;
55913;SDS011;58179;48.776;9.124;2022-08-18T04:55:11;7.07;;;5.83;;
55913;SDS011;58179;48.776;9.124;2022-08-18T04:57:37;7.00;;;5.70;;
55913;SDS011;58179;48.776;9.124;2022-08-18T05:00:04;9.35;;;5.60;;
55913;SDS011;58179;48.776;9.124;2022-08-18T05:02:33;9.05;;;5.50;;
55913;SDS011;58179;48.776;9.124;2022-08-18T05:04:59;7.82;;;5.78;;
55913;SDS011;58179;48.776;9.124;2022-08-18T05:07:27;7.75;;;6.40;;
55913;SDS011;58179;48.776;9.124;2022-08-18T05:09:54;6.68;;;5.90;;
55913;SDS011;58179;48.776;9.124;2022-08-18T05:12:20;7.23;;;6.03;;
55913;SDS011;58179;48.776;9.124;2022-08-18T05:14:46;7.63;;;5.80;;
55913;SDS011;58179;48.776;9.124;2022-08-18T05:17:12;7.15;;;5.82;;
55913;SDS011;58179;48.776;9.124;2022-08-18T05:19:41;6.53;;;5.90;;
55913;SDS011;58179;48.776;9.124;2022-08-18T05:22:08;7.72;;;5.90;;
55913;SDS011;58179;48.776;9.124;2022-08-18T05:24:34;8.45;;;6.30;;
55913;SDS011;58179;48.776;9.124;2022-08-18T05:27:01;8.57;;;5.90;;
55913;SDS011;58179;48.776;9.124;2022-08-18T05:29:28;8.50;;;5.85;;
55913;SDS011;58179;48.776;9.124;2022-08-18T05:32:01;8.82;;;6.30;;
55913;SDS011;58179;48.776;9.124;2022-08-18T05:34:31;7.72;;;5.85;;
55913;SDS011;58179;48.776;9.124;2022-08-18T05:37:06;8.27;;;6.30;;
55913;SDS011;58179;48.776;9.124;2022-08-18T05:39:52;7.70;;;6.22;;
55913;SDS011;58179;48.776;9.124;2022-08-18T05:42:22;7.07;;;6.03;;
55913;SDS011;58179;48.776;9.124;2022-08-18T05:44:52;7.30;;;6.25;;
55913;SDS011;58179;48.776;9.124;2022-08-18T05:47:21;6.57;;;5.78;;
55913;SDS011;58179;48.776;9.124;2022-08-18T05:49:50;7.65;;;6.07;;
55913;SDS011;58179;48.776;9.124;2022-08-18T05:52:20;7.47;;;6.15;;
55913;SDS011;58179;48.776;9.124;2022-08-18T05:54:55;8.65;;;6.45;;
55913;SDS011;58179;48.776;9.124;2022-08-18T05:57:46;8.15;;;6.20;;
55913;SDS011;58179;48.776;9.124;2022-08-18T06:00:17;8.50;;;5.93;;
55913;SDS011;58179;48.776;9.124;2022-08-18T06:02:46;8.82;;;6.20;;
55913;SDS011;58179;48.776;9.124;2022-08-18T06:05:20;8.52;;;5.90;;
55913;SDS011;58179;48.776;9.124;2022-08-18T06:07:53;6.22;;;5.63;;
55913;SDS011;58179;48.776;9.124;2022-08-18T06:10:23;9.23;;;6.57;;
55913;SDS011;58179;48.776;9.124;2022-08-18T06:12:51;8.38;;;6.07;;
55913;SDS011;58179;48.776;9.124;2022-08-18T06:15:22;9.30;;;6.40;;
55913;SDS011;58179;48.776;9.124;2022-08-18T06:18:06;8.40;;;6.20;;
55913;SDS011;58179;48.776;9.124;2022-08-18T06:20:58;7.25;;;6.25;;
55913;SDS011;58179;48.776;9.124;2022-08-18T06:23:41;7.72;;;6.07;;
55913;SDS011;58179;48.776;9.124;2022-08-18T06:26:20;7.93;;;6.00;;
55913;SDS011;58179;48.776;9.124;2022-08-18T06:29:02;9.70;;;6.93;;
55913;SDS011;58179;48.776;9.124;2022-08-18T06:31:53;7.70;;;6.68;;
55913;SDS011;58179;48.776;9.124;2022-08-18T06:34:32;8.15;;;6.47;;
55913;SDS011;58179;48.776;9.124;2022-08-18T06:37:10;7.00;;;5.93;;
55913;SDS011;58179;48.776;9.124;2022-08-18T06:39:45;7.43;;;6.15;;
55913;SDS011;58179;48.776;9.124;2022-08-18T06:42:14;8.18;;;6.40;;
55913;SDS011;58179;48.776;9.124;2022-08-18T06:44:43;7.80;;;5.95;;
55913;SDS011;58179;48.776;9.124;2022-08-18T06:47:16;8.23;;;6.32;;
55913;SDS011;58179;48.776;9.124;2022-08-18T06:49:55;7.63;;;6.25;;
55913;SDS011;58179;48.776;9.124;2022-08-18T06:52:30;7.37;;;6.47;;
55913;SDS011;58179;48.776;9.124;2022-08-18T06:55:02;7.85;;;5.97;;
55913;SDS011;58179;48.776;9.124;2022-08-18T06:57:34;7.83;;;6.33;;
55913;SDS011;58179;48.776;9.124;2022-08-18T07:00:05;7.80;;;6.60;;
55913;SDS011;58179;48.776;9.124;2022-08-18T07:02:46;7.57;;;5.60;;
55913;SDS011;58179;48.776;9.124;2022-08-18T07:05:20;7.53;;;5.67;;
55913;SDS011;58179;48.776;9.124;2022-08-18T07:08:02;7.40;;;5.65;;
55913;SDS011;58179;48.776;9.124;2022-08-18T07:10:37;8.18;;;5.43;;
55913;SDS011;58179;48.776;9.124;2022-08-18T07:15:50;6.60;;;5.20;;
55913;SDS011;58179;48.776;9.124;2022-08-18T07:18:22;9.90;;;5.45;;
55913;SDS011;58179;48.776;9.124;2022-08-18T07:20:53;7.63;;;5.55;;
55913;SDS011;58179;48.776;9.124;2022-08-18T07:23:23;7.18;;;5.63;;
55913;SDS011;58179;48.776;9.124;2022-08-18T07:28:29;7.43;;;5.70;;
55913;SDS011;58179;48.776;9.124;2022-08-18T07:31:08;8.57;;;6.03;;
55913;SDS011;58179;48.776;9.124;2022-08-18T07:33:52;8.20;;;6.00;;
55913;SDS011;58179;48.776;9.124;2022-08-18T07:36:24;7.68;;;5.38;;
55913;SDS011;58179;48.776;9.124;2022-08-18T07:38:57;9.73;;;6.47;;
55913;SDS011;58179;48.776;9.124;2022-08-18T07:41:31;8.13;;;5.70;;
55913;SDS011;58179;48.776;9.124;2022-08-18T07:44:10;7.57;;;5.93;;
55913;SDS011;58179;48.776;9.124;2022-08-18T07:46:46;8.68;;;5.85;;
55913;SDS011;58179;48.776;9.124;2022-08-18T07:49:21;8.38;;;5.57;;
55913;SDS011;58179;48.776;9.124;2022-08-18T07:51:51;7.50;;;5.82;;
55913;SDS011;58179;48.776;9.124;2022-08-18T07:54:27;8.85;;;5.93;;
55913;SDS011;58179;48.776;9.124;2022-08-18T07:57:11;8.45;;;5.80;;
55913;SDS011;58179;48.776;9.124;2022-08-18T07:59:46;8.77;;;5.43;;
55913;SDS011;58179;48.776;9.124;2022-08-18T08:02:22;11.68;;;5.82;;
55913;SDS011;58179;48.776;9.124;2022-08-18T08:05:01;7.07;;;5.57;;
55913;SDS011;58179;48.776;9.124;2022-08-18T08:07:37;6.78;;;5.60;;
55913;SDS011;58179;48.776;9.124;2022-08-18T08:10:20;10.57;;;5.40;;
55913;SDS011;58179;48.776;9.124;2022-08-18T08:13:00;9.40;;;6.30;;
55913;SDS011;58179;48.776;9.124;2022-08-18T08:15:44;10.57;;;5.57;;
55913;SDS011;58179;48.776;9.124;2022-08-18T08:18:28;9.75;;;5.68;;
55913;SDS011;58179;48.776;9.124;2022-08-18T08:21:09;7.35;;;5.68;;
55913;SDS011;58179;48.776;9.124;2022-08-18T08:23:43;8.77;;;5.70;;
55913;SDS011;58179;48.776;9.124;2022-08-18T08:26:19;7.80;;;5.30;;
55913;SDS011;58179;48.776;9.124;2022-08-18T08:29:02;9.23;;;6.20;;
55913;SDS011;58179;48.776;9.124;2022-08-18T08:31:47;8.97;;;6.00;;
55913;SDS011;58179;48.776;9.124;2022-08-18T08:34:19;7.03;;;5.72;;
55913;SDS011;58179;48.776;9.124;2022-08-18T08:36:53;9.60;;;5.83;;
55913;SDS011;58179;48.776;9.124;2022-08-18T08:39:29;8.85;;;6.22;;
55913;SDS011;58179;48.776;9.124;2022-08-18T08:42:00;8.55;;;6.50;;
55913;SDS011;58179;48.776;9.124;2022-08-18T08:44:34;8.05;;;5.82;;
55913;SDS011;58179;48.776;9.124;2022-08-18T08:47:11;9.63;;;6.70;;
55913;SDS011;58179;48.776;9.124;2022-08-18T08:49:45;8.20;;;5.95;;
55913;SDS011;58179;48.776;9.124;2022-08-18T08:52:17;10.20;;;6.57;;
55913;SDS011;58179;48.776;9.124;2022-08-18T08:54:51;7.28;;;5.80;;
55913;SDS011;58179;48.776;9.124;2022-08-18T08:57:25;12.05;;;6.68;;
55913;SDS011;58179;48.776;9.124;2022-08-18T08:59:57;6.53;;;5.50;;
55913;SDS011;58179;48.776;9.124;2022-08-18T09:02:44;13.02;;;6.80;;
55913;SDS011;58179;48.776;9.124;2022-08-18T09:05:26;9.20;;;6.85;;
55913;SDS011;58179;48.776;9.124;2022-08-18T09:08:05;8.57;;;6.57;;
55913;SDS011;58179;48.776;9.124;2022-08-18T09:11:19;9.88;;;6.25;;
55913;SDS011;58179;48.776;9.124;2022-08-18T09:14:08;8.23;;;5.85;;
55913;SDS011;58179;48.776;9.124;2022-08-18T09:17:19;7.18;;;5.60;;
55913;SDS011;58179;48.776;9.124;2022-08-18T09:20:09;8.40;;;6.10;;
55913;SDS011;58179;48.776;9.124;2022-08-18T09:22:55;10.63;;;7.07;;
55913;SDS011;58179;48.776;9.124;2022-08-18T09:25:31;8.77;;;6.40;;
55913;SDS011;58179;48.776;9.124;2022-08-18T09:28:17;8.95;;;6.32;;
55913;SDS011;58179;48.776;9.124;2022-08-18T09:30:49;8.52;;;6.63;;
55913;SDS011;58179;48.776;9.124;2022-08-18T09:33:33;9.93;;;7.07;;
55913;SDS011;58179;48.776;9.124;2022-08-18T09:36:55;7.60;;;6.22;;
55913;SDS011;58179;48.776;9.124;2022-08-18T09:39:30;9.13;;;6.95;;
55913;SDS011;58179;48.776;9.124;2022-08-18T09:42:25;7.65;;;6.40;;
55913;SDS011;58179;48.776;9.124;2022-08-18T09:45:04;9.52;;;6.38;;
55913;SDS011;58179;48.776;9.124;2022-08-18T09:47:59;8.98;;;6.55;;
55913;SDS011;58179;48.776;9.124;2022-08-18T09:50:52;11.77;;;9.00;;
55913;SDS011;58179;48.776;9.124;2022-08-18T09:53:34;11.05;;;6.85;;
55913;SDS011;58179;48.776;9.124;2022-08-18T09:56:17;8.88;;;6.70;;
55913;SDS011;58179;48.776;9.124;2022-08-18T09:59:51;7.18;;;6.35;;
55913;SDS011;58179;48.776;9.124;2022-08-18T10:06:00;10.30;;;6.95;;
55913;SDS011;58179;48.776;9.124;2022-08-18T10:08:42;9.10;;;7.30;;
55913;SDS011;58179;48.776;9.124;2022-08-18T10:11:42;9.93;;;6.05;;
55913;SDS011;58179;48.776;9.124;2022-08-18T10:14:40;9.60;;;7.15;;
55913;SDS011;58179;48.776;9.124;2022-08-18T10:17:32;8.57;;;7.35;;
55913;SDS011;58179;48.776;9.124;2022-08-18T10:20:17;12.47;;;7.43;;
55913;SDS011;58179;48.776;9.124;2022-08-18T10:22:55;11.45;;;8.10;;
55913;SDS011;58179;48.776;9.124;2022-08-18T10:25:31;8.57;;;6.93;;
55913;SDS011;58179;48.776;9.124;2022-08-18T10:28:02;10.95;;;6.47;;
55913;SDS011;58179;48.776;9.124;2022-08-18T10:30:48;11.48;;;7.90;;
55913;SDS011;58179;48.776;9.124;2022-08-18T10:39:20;10.02;;;7.57;;
55913;SDS011;58179;48.776;9.124;2022-08-18T10:42:01;10.32;;;7.07;;
55913;SDS011;58179;48.776;9.124;2022-08-18T10:44:36;8.68;;;6.80;;
55913;SDS011;58179;48.776;9.124;2022-08-18T10:47:07;11.25;;;7.55;;
55913;SDS011;58179;48.776;9.124;2022-08-18T10:49:46;12.02;;;8.07;;
55913;SDS011;58179;48.776;9.124;2022-08-18T10:52:30;8.80;;;7.32;;
55913;SDS011;58179;48.776;9.124;2022-08-18T10:55:39;13.40;;;8.07;;
55913;SDS011;58179;48.776;9.124;2022-08-18T10:58:31;14.38;;;7.43;;
55913;SDS011;58179;48.776;9.124;2022-08-18T11:01:11;13.43;;;7.37;;
55913;SDS011;58179;48.776;9.124;2022-08-18T11:03:58;9.82;;;7.15;;
55913;SDS011;58179;48.776;9.124;2022-08-18T11:06:29;7.97;;;6.90;;
55913;SDS011;58179;48.776;9.124;2022-08-18T11:09:05;10.75;;;7.60;;
55913;SDS011;58179;48.776;9.124;2022-08-18T11:11:33;9.70;;;7.20;;
55913;SDS011;58179;48.776;9.124;2022-08-18T11:14:07;11.13;;;7.35;;
55913;SDS011;58179;48.776;9.124;2022-08-18T11:16:48;10.32;;;7.32;;
55913;SDS011;58179;48.776;9.124;2022-08-18T11:19:22;14.63;;;7.95;;
55913;SDS011;58179;48.776;9.124;2022-08-18T11:21:49;10.45;;;6.90;;
55913;SDS011;58179;48.776;9.124;2022-08-18T11:24:17;8.70;;;6.80;;
55913;SDS011;58179;48.776;9.124;2022-08-18T11:26:46;9.93;;;7.35;;
55913;SDS011;58179;48.776;9.124;2022-08-18T11:29:25;8.40;;;6.70;;
55913;SDS011;58179;48.776;9.124;2022-08-18T11:32:00;9.77;;;7.28;;
55913;SDS011;58179;48.776;9.124;2022-08-18T11:34:34;10.98;;;7.63;;
55913;SDS011;58179;48.776;9.124;2022-08-18T11:37:05;13.10;;;7.03;;
55913;SDS011;58179;48.776;9.124;2022-08-18T11:39:46;10.18;;;8.10;;
55913;SDS011;58179;48.776;9.124;2022-08-18T11:42:14;7.97;;;6.88;;
55913;SDS011;58179;48.776;9.124;2022-08-18T11:44:44;12.13;;;7.97;;
55913;SDS011;58179;48.776;9.124;2022-08-18T11:47:15;9.52;;;8.02;;
55913;SDS011;58179;48.776;9.124;2022-08-18T11:49:52;10.77;;;7.95;;
55913;SDS011;58179;48.776;9.124;2022-08-18T11:52:23;11.30;;;8.10;;
55913;SDS011;58179;48.776;9.124;2022-08-18T11:54:57;10.98;;;8.57;;
55913;SDS011;58179;48.776;9.124;2022-08-18T11:57:30;13.00;;;8.15;;
55913;SDS011;58179;48.776;9.124;2022-08-18T12:03:22;11.73;;;8.65;;
55913;SDS011;58179;48.776;9.124;2022-08-18T12:05:56;11.63;;;7.53;;
55913;SDS011;58179;48.776;9.124;2022-08-18T12:08:34;10.48;;;8.02;;
55913;SDS011;58179;48.776;9.124;2022-08-18T12:11:13;11.77;;;8.32;;
55913;SDS011;58179;48.776;9.124;2022-08-18T12:13:44;10.00;;;7.93;;
55913;SDS011;58179;48.776;9.124;2022-08-18T12:16:31;8.93;;;7.67;;
55913;SDS011;58179;48.776;9.124;2022-08-18T12:19:01;11.60;;;8.07;;
55913;SDS011;58179;48.776;9.124;2022-08-18T12:21:29;12.63;;;7.90;;
55913;SDS011;58179;48.776;9.124;2022-08-18T12:23:55;11.13;;;7.95;;
55913;SDS011;58179;48.776;9.124;2022-08-18T12:26:21;8.73;;;7.57;;
55913;SDS011;58179;48.776;9.124;2022-08-18T12:28:47;7.83;;;6.80;;
55913;SDS011;58179;48.776;9.124;2022-08-18T12:31:13;9.63;;;7.28;;
55913;SDS011;58179;48.776;9.124;2022-08-18T12:33:40;12.32;;;7.43;;
55913;SDS011;58179;48.776;9.124;2022-08-18T12:36:06;9.85;;;6.63;;
55913;SDS011;58179;48.776;9.124;2022-08-18T12:38:33;8.40;;;6.90;;
55913;SDS011;58179;48.776;9.124;2022-08-18T12:40:59;6.13;;;5.53;;
55913;SDS011;58179;48.776;9.124;2022-08-18T12:43:25;7.77;;;6.40;;
55913;SDS011;58179;48.776;9.124;2022-08-18T12:45:51;9.82;;;7.00;;
55913;SDS011;58179;48.776;9.124;2022-08-18T12:48:17;8.60;;;6.40;;
55913;SDS011;58179;48.776;9.124;2022-08-18T12:50:45;9.20;;;6.90;;
55913;SDS011;58179;48.776;9.124;2022-08-18T12:53:11;7.47;;;6.57;;
55913;SDS011;58179;48.776;9.124;2022-08-18T12:55:39;9.70;;;6.95;;
55913;SDS011;58179;48.776;9.124;2022-08-18T12:58:07;12.80;;;6.63;;
55913;SDS011;58179;48.776;9.124;2022-08-18T13:00:33;11.15;;;6.65;;
55913;SDS011;58179;48.776;9.124;2022-08-18T13:03:00;7.95;;;6.80;;
55913;SDS011;58179;48.776;9.124;2022-08-18T13:05:26;9.25;;;6.38;;
55913;SDS011;58179;48.776;9.124;2022-08-18T13:07:54;9.40;;;6.28;;
55913;SDS011;58179;48.776;9.124;2022-08-18T13:10:23;9.00;;;5.93;;
55913;SDS011;58179;48.776;9.124;2022-08-18T13:12:49;9.05;;;6.57;;
55913;SDS011;58179;48.776;9.124;2022-08-18T13:15:15;7.13;;;5.53;;
55913;SDS011;58179;48.776;9.124;2022-08-18T13:17:40;7.53;;;6.45;;
55913;SDS011;58179;48.776;9.124;2022-08-18T13:20:08;9.38;;;6.25;;
55913;SDS011;58179;48.776;9.124;2022-08-18T13:22:37;7.90;;;6.47;;
55913;SDS011;58179;48.776;9.124;2022-08-18T13:25:07;10.82;;;6.90;;
55913;SDS011;58179;48.776;9.124;2022-08-18T13:27:35;10.55;;;6.63;;
55913;SDS011;58179;48.776;9.124;2022-08-18T13:30:02;9.13;;;6.60;;
55913;SDS011;58179;48.776;9.124;2022-08-18T13:32:32;8.10;;;6.47;;
55913;SDS011;58179;48.776;9.124;2022-08-18T13:34:58;7.70;;;6.25;;
55913;SDS011;58179;48.776;9.124;2022-08-18T13:37:24;9.07;;;6.93;;
55913;SDS011;58179;48.776;9.124;2022-08-18T13:39:52;15.68;;;7.72;;
55913;SDS011;58179;48.776;9.124;2022-08-18T13:42:19;11.18;;;7.22;;
55913;SDS011;58179;48.776;9.124;2022-08-18T13:44:45;8.02;;;6.35;;
55913;SDS011;58179;48.776;9.124;2022-08-18T13:47:11;7.57;;;6.07;;
55913;SDS011;58179;48.776;9.124;2022-08-18T13:49:38;9.60;;;7.30;;
55913;SDS011;58179;48.776;9.124;2022-08-18T13:52:04;9.32;;;6.93;;
55913;SDS011;58179;48.776;9.124;2022-08-18T13:54:31;8.07;;;6.67;;
55913;SDS011;58179;48.776;9.124;2022-08-18T13:56:59;8.52;;;6.38;;
55913;SDS011;58179;48.776;9.124;2022-08-18T13:59:28;9.63;;;6.80;;
55913;SDS011;58179;48.776;9.124;2022-08-18T14:01:57;13.10;;;7.78;;
55913;SDS011;58179;48.776;9.124;2022-08-18T14:04:24;8.55;;;7.10;;
55913;SDS011;58179;48.776;9.124;2022-08-18T14:06:51;10.03;;;6.40;;
55913;SDS011;58179;48.776;9.124;2022-08-18T14:09:19;10.00;;;6.47;;
55913;SDS011;58179;48.776;9.124;2022-08-18T14:11:45;8.07;;;6.60;;
55913;SDS011;58179;48.776;9.124;2022-08-18T14:14:13;10.55;;;6.35;;
55913;SDS011;58179;48.776;9.124;2022-08-18T14:16:40;8.20;;;5.82;;
55913;SDS011;58179;48.776;9.124;2022-08-18T14:19:06;10.43;;;6.70;;
55913;SDS011;58179;48.776;9.124;2022-08-18T14:21:53;8.15;;;6.28;;
55913;SDS011;58179;48.776;9.124;2022-08-18T14:24:38;9.73;;;6.53;;
55913;SDS011;58179;48.776;9.124;2022-08-18T14:27:26;10.23;;;6.45;;
55913;SDS011;58179;48.776;9.124;2022-08-18T14:29:54;7.15;;;5.88;;
55913;SDS011;58179;48.776;9.124;2022-08-18T14:32:22;8.45;;;5.80;;
55913;SDS011;58179;48.776;9.124;2022-08-18T14:34:51;12.27;;;6.23;;
55913;SDS011;58179;48.776;9.124;2022-08-18T14:37:17;8.40;;;5.60;;
55913;SDS011;58179;48.776;9.124;2022-08-18T14:39:43;8.82;;;5.47;;
55913;SDS011;58179;48.776;9.124;2022-08-18T14:42:09;7.53;;;5.40;;
55913;SDS011;58179;48.776;9.124;2022-08-18T14:44:38;7.75;;;5.53;;
55913;SDS011;58179;48.776;9.124;2022-08-18T14:47:04;8.40;;;5.82;;
55913;SDS011;58179;48.776;9.124;2022-08-18T14:49:32;9.48;;;6.43;;
55913;SDS011;58179;48.776;9.124;2022-08-18T14:52:00;8.40;;;6.28;;
55913;SDS011;58179;48.776;9.124;2022-08-18T14:54:27;9.80;;;6.35;;
55913;SDS011;58179;48.776;9.124;2022-08-18T14:56:54;8.55;;;6.50;;
55913;SDS011;58179;48.776;9.124;2022-08-18T14:59:20;7.90;;;5.70;;
55913;SDS011;58179;48.776;9.124;2022-08-18T15:01:47;7.53;;;5.93;;
55913;SDS011;58179;48.776;9.124;2022-08-18T15:04:13;13.02;;;5.72;;
55913;SDS011;58179;48.776;9.124;2022-08-18T15:06:41;7.47;;;5.50;;
55913;SDS011;58179;48.776;9.124;2022-08-18T15:09:07;12.57;;;5.72;;
55913;SDS011;58179;48.776;9.124;2022-08-18T15:11:33;11.32;;;5.80;;
55913;SDS011;58179;48.776;9.124;2022-08-18T15:13:59;11.10;;;5.30;;
55913;SDS011;58179;48.776;9.124;2022-08-18T15:16:25;7.35;;;5.75;;
55913;SDS011;58179;48.776;9.124;2022-08-18T15:18:51;11.00;;;5.90;;
55913;SDS011;58179;48.776;9.124;2022-08-18T15:21:18;8.55;;;5.88;;
55913;SDS011;58179;48.776;9.124;2022-08-18T15:24:04;7.23;;;5.70;;
55913;SDS011;58179;48.776;9.124;2022-08-18T15:26:51;7.75;;;5.57;;
55913;SDS011;58179;48.776;9.124;2022-08-18T15:29:18;11.55;;;6.35;;
55913;SDS011;58179;48.776;9.124;2022-08-18T15:31:44;8.30;;;6.00;;
55913;SDS011;58179;48.776;9.124;2022-08-18T15:34:10;9.32;;;5.95;;
55913;SDS011;58179;48.776;9.124;2022-08-18T15:36:36;6.75;;;5.95;;